KSUN/SUN METAR and TAF weather

Enter ICAO airport designator
Station Type Date Time Source
KSUN METAR 2019/04/22 17:50 UTC NOAA

KSUN 221750Z 19004KT 10SM SCT040 13/04 A3024


Station Type Date Time Source
KSUN Decoded METAR 2019/04/22 17:50 UTC NOAA

Hailey, Friedman Memorial Airport, ID, United States (KSUN) 43-30N 114-18W
Apr 22, 2019 - 01:50 PM EDT / 2019.04.22 1750 UTC
Wind: from the S (190 degrees) at 5 MPH (4 KT):0
Visibility: 10 mile(s):0
Sky conditions: partly cloudy
Temperature: 55 F (13 C)
Dew Point: 39 F (4 C)
Relative Humidity: 54%
Pressure (altimeter): 30.24 in. Hg (1024 hPa)
ob: KSUN 221750Z 19004KT 10SM SCT040 13/04 A3024
cycle: 18

Station Type Date Time Source
KSUN TAF 2019/04/22 18:24 UTC NOAA

TAF KSUN 221720Z 2218/2324 15008KT P6SM SCT040
FM230400 32008KT P6SM FEW040
FM231800 13007KT P6SM SCT050

Example: see airport list